createdAt,value
2019-05-20T00:05:04.831Z,19.30
2019-05-20T00:10:12.676Z,20.67
2019-05-20T00:15:19.718Z,17.20
2019-05-20T00:20:28.143Z,17.50
2019-05-20T00:25:35.334Z,17.17
2019-05-20T00:30:42.359Z,17.87
2019-05-20T00:35:49.495Z,20.50
2019-05-20T00:40:56.723Z,18.77
2019-05-20T00:46:05.689Z,18.93
2019-05-20T00:51:12.777Z,19.50
2019-05-20T00:56:19.884Z,17.60
2019-05-20T01:01:27.012Z,19.63
2019-05-20T01:06:34.106Z,17.60
2019-05-20T01:11:42.254Z,19.57
2019-05-20T01:16:49.457Z,17.73
2019-05-20T01:21:56.758Z,17.40
2019-05-20T01:27:04.077Z,16.57
2019-05-20T01:32:12.568Z,16.03
2019-05-20T01:37:19.772Z,16.30
2019-05-20T01:42:27.801Z,15.50
2019-05-20T01:47:35.056Z,21.93
2019-05-20T01:52:42.319Z,18.77
2019-05-20T01:57:50.630Z,18.83
2019-05-20T02:02:57.813Z,17.57
2019-05-20T02:08:06.127Z,18.63
2019-05-20T02:13:13.492Z,15.97
2019-05-20T02:18:20.717Z,18.00
2019-05-20T02:23:27.833Z,19.27
2019-05-20T02:28:34.931Z,22.20
2019-05-20T02:33:51.628Z,17.57
2019-05-20T02:38:50.829Z,16.37
2019-05-20T02:43:58.030Z,17.63
2019-05-20T02:49:06.068Z,19.07
2019-05-20T02:54:13.226Z,17.80
2019-05-20T02:59:20.293Z,18.97
2019-05-20T03:04:27.412Z,21.17
2019-05-20T03:09:34.486Z,18.80
2019-05-20T03:14:41.614Z,24.37
2019-05-20T03:19:48.955Z,24.17
2019-05-20T03:24:56.397Z,23.00
2019-05-20T03:30:03.709Z,23.77
2019-05-20T03:35:11.337Z,21.77
2019-05-20T03:40:18.570Z,21.27
2019-05-20T03:45:25.657Z,21.57
2019-05-20T03:50:32.843Z,22.83
2019-05-20T03:55:39.963Z,22.60
2019-05-20T04:00:48.331Z,20.87
2019-05-20T04:05:59.192Z,22.23
2019-05-20T04:11:06.301Z,22.23
2019-05-20T04:16:13.328Z,17.27
2019-05-20T04:21:20.466Z,16.07
2019-05-20T04:26:27.440Z,14.90
2019-05-20T04:31:34.607Z,14.63
2019-05-20T04:36:41.730Z,14.53
2019-05-20T04:41:49.022Z,14.33
2019-05-20T04:46:58.001Z,15.00
2019-05-20T04:52:06.274Z,14.00
2019-05-20T04:57:13.303Z,14.53
2019-05-20T05:02:20.301Z,13.57
2019-05-20T05:07:27.762Z,15.43
2019-05-20T05:12:34.918Z,13.50
2019-05-20T05:17:43.230Z,12.13
2019-05-20T05:22:50.260Z,12.17
2019-05-20T05:27:57.456Z,11.97
2019-05-20T05:33:04.593Z,11.90
2019-05-20T05:38:11.777Z,11.27
2019-05-20T05:43:18.913Z,11.23
2019-05-20T05:48:26.109Z,10.83
2019-05-20T05:53:33.135Z,10.87
2019-05-20T05:58:40.283Z,10.27
2019-05-20T06:03:47.440Z,9.73
2019-05-20T06:08:54.714Z,10.27
2019-05-20T06:14:01.907Z,10.00
2019-05-20T06:19:09.008Z,9.47
2019-05-20T06:24:16.442Z,9.13
2019-05-20T06:29:23.939Z,9.13
2019-05-20T06:34:33.269Z,8.67
2019-05-20T06:39:40.271Z,8.53
2019-05-20T06:44:52.855Z,8.87
2019-05-20T06:49:56.428Z,9.93
2019-05-20T06:55:03.608Z,10.73
2019-05-20T07:00:12.440Z,10.88
2019-05-20T07:05:19.509Z,10.17
2019-05-20T07:10:26.722Z,12.90
2019-05-20T07:15:33.837Z,12.80
2019-05-20T07:20:41.053Z,12.00
2019-05-20T07:25:49.417Z,12.40
2019-05-20T07:30:57.654Z,12.23
2019-05-20T07:36:09.663Z,11.77
2019-05-20T07:41:14.909Z,9.45
2019-05-20T07:46:23.379Z,7.72
2019-05-20T07:51:31.296Z,7.83
2019-05-20T07:56:41.756Z,8.77
2019-05-20T08:01:50.517Z,7.90
2019-05-20T08:06:58.080Z,8.50
2019-05-20T08:12:06.089Z,8.63
2019-05-20T08:17:14.119Z,8.13
2019-05-20T08:22:22.461Z,7.50
2019-05-20T08:27:32.487Z,7.67
2019-05-20T08:32:40.414Z,8.13
2019-05-20T08:37:48.086Z,8.37
2019-05-20T08:42:55.294Z,8.00
2019-05-20T08:48:02.421Z,8.47
2019-05-20T08:53:10.168Z,7.80
2019-05-20T08:58:17.239Z,7.10
2019-05-20T09:03:24.778Z,6.70
2019-05-20T09:08:32.059Z,7.23
2019-05-20T09:13:39.067Z,7.33
2019-05-20T09:18:46.209Z,9.50
2019-05-20T09:23:53.461Z,10.20
2019-05-20T09:29:00.836Z,8.33
2019-05-20T09:34:08.166Z,7.37
2019-05-20T09:39:16.083Z,7.75
2019-05-20T09:44:24.757Z,7.10
2019-05-20T09:49:32.106Z,7.15
2019-05-20T09:54:39.828Z,7.83
2019-05-20T09:59:48.032Z,6.87
2019-05-20T10:04:56.347Z,6.95
2019-05-20T10:10:05.204Z,8.23
2019-05-20T10:15:12.504Z,7.90
2019-05-20T10:20:21.435Z,6.92
2019-05-20T10:25:29.836Z,7.50
2019-05-20T10:30:38.187Z,8.60
2019-05-20T10:35:46.972Z,8.53
2019-05-20T10:40:56.283Z,7.22
2019-05-20T10:46:04.586Z,7.97
2019-05-20T10:51:13.239Z,8.35
2019-05-20T10:56:22.029Z,9.58
2019-05-20T11:01:30.361Z,7.67
2019-05-20T11:06:38.687Z,9.75
2019-05-20T11:11:47.015Z,8.13
2019-05-20T11:16:55.341Z,14.23
2019-05-20T11:22:02.498Z,10.10
2019-05-20T11:27:09.562Z,10.15
2019-05-20T11:32:16.782Z,8.25
2019-05-20T11:37:24.600Z,8.03
2019-05-20T11:42:32.955Z,9.18
2019-05-20T11:47:41.182Z,8.70
2019-05-20T11:52:48.526Z,7.40
2019-05-20T11:57:55.798Z,6.95
2019-05-20T12:03:03.275Z,7.40
2019-05-20T12:08:10.402Z,7.40
2019-05-20T12:13:17.860Z,7.28
2019-05-20T12:18:25.130Z,8.13
2019-05-20T12:23:32.482Z,7.22
2019-05-20T12:28:41.082Z,6.60
2019-05-20T12:33:49.368Z,7.25
2019-05-20T12:38:58.021Z,7.03
2019-05-20T12:44:11.805Z,5.80
2019-05-20T12:49:15.907Z,6.28
2019-05-20T12:54:23.998Z,7.08
2019-05-20T12:59:32.297Z,7.42
2019-05-20T13:04:39.860Z,8.65
2019-05-20T13:09:48.088Z,8.68
2019-05-20T13:14:55.528Z,8.60
2019-05-20T13:20:02.924Z,8.10
2019-05-20T13:25:12.267Z,7.65
2019-05-20T13:30:21.487Z,8.65
2019-05-20T13:35:29.998Z,7.45
2019-05-20T13:40:46.217Z,8.33
2019-05-20T13:45:48.082Z,7.92
2019-05-20T13:50:55.941Z,8.28
2019-05-20T13:56:04.625Z,8.18
2019-05-20T14:01:12.082Z,7.33
2019-05-20T14:06:20.474Z,10.32
2019-05-20T14:11:34.723Z,8.77
2019-05-20T14:16:36.217Z,9.47
2019-05-20T14:21:46.844Z,5.80
2019-05-20T14:26:55.473Z,5.50
2019-05-20T14:32:02.984Z,6.33
2019-05-20T14:37:10.457Z,7.73
2019-05-20T14:42:17.519Z,6.97
2019-05-20T14:47:24.690Z,8.27
2019-05-20T14:52:31.781Z,7.97
2019-05-20T14:57:39.913Z,16.60
2019-05-20T15:02:47.016Z,8.50
2019-05-20T15:07:55.335Z,7.40
2019-05-20T15:13:03.887Z,9.27
2019-05-20T15:18:10.924Z,8.40
2019-05-20T15:23:19.254Z,8.27
2019-05-20T15:28:27.560Z,8.80
2019-05-20T15:33:34.587Z,10.20
2019-05-20T15:38:41.632Z,9.00
2019-05-20T15:43:48.835Z,9.90
2019-05-20T15:48:57.038Z,37.10
2019-05-20T15:54:05.765Z,10.83
2019-05-20T15:59:13.183Z,9.23
2019-05-20T16:04:20.360Z,12.43
2019-05-20T16:09:27.512Z,10.10
2019-05-20T16:14:34.976Z,8.38
2019-05-20T16:19:42.339Z,8.05
2019-05-20T16:24:49.446Z,7.25
2019-05-20T16:30:06.302Z,8.70
2019-05-20T16:35:06.190Z,8.28
2019-05-20T16:40:14.689Z,7.72
2019-05-20T16:45:21.936Z,8.03
2019-05-20T16:50:29.090Z,11.38
2019-05-20T16:55:36.362Z,11.40
2019-05-20T17:00:43.666Z,17.00
2019-05-20T17:05:50.910Z,11.45
2019-05-20T17:10:58.220Z,11.47
2019-05-20T17:16:06.483Z,11.70
2019-05-20T17:21:13.641Z,10.93
2019-05-20T17:26:20.939Z,12.77
2019-05-20T17:31:30.828Z,15.83
2019-05-20T17:36:36.969Z,14.37
2019-05-20T17:41:44.234Z,12.47
2019-05-20T17:46:51.416Z,12.07
2019-05-20T17:51:58.529Z,16.27
2019-05-20T17:57:06.263Z,19.20
2019-05-20T18:02:13.728Z,18.60
2019-05-20T18:07:20.957Z,14.23
2019-05-20T18:12:28.295Z,13.60
2019-05-20T18:17:35.657Z,17.97
2019-05-20T18:22:42.782Z,16.43
2019-05-20T18:27:50.814Z,17.40
2019-05-20T18:32:58.164Z,17.70
2019-05-20T18:38:06.088Z,18.87
2019-05-20T18:43:13.261Z,18.73
2019-05-20T18:48:20.383Z,27.67
2019-05-20T18:53:27.542Z,25.90
2019-05-20T18:58:35.221Z,27.60
2019-05-20T19:04:25.707Z,16.00
2019-05-20T19:09:42.638Z,14.83
2019-05-20T19:14:49.824Z,14.17
2019-05-20T19:19:57.080Z,19.70
2019-05-20T19:25:06.115Z,19.87
2019-05-20T19:30:13.832Z,22.80
2019-05-20T19:35:21.876Z,36.40
2019-05-20T19:40:29.283Z,22.40
2019-05-20T19:45:51.124Z,36.07
2019-05-20T19:50:58.773Z,23.00
2019-05-20T19:56:14.826Z,15.00
2019-05-20T20:01:22.509Z,12.57
2019-05-20T20:06:29.767Z,13.53
2019-05-20T20:11:37.487Z,12.37
2019-05-20T20:16:44.668Z,12.60
2019-05-20T20:21:51.975Z,16.60
2019-05-20T20:26:59.796Z,19.53
2019-05-20T20:32:06.978Z,15.10
2019-05-20T20:37:14.326Z,13.00
2019-05-20T20:42:21.431Z,12.13
2019-05-20T20:47:40.813Z,11.53
2019-05-20T20:52:37.464Z,15.50
2019-05-20T20:57:44.577Z,15.17
2019-05-20T21:02:53.674Z,14.07
2019-05-20T21:08:13.648Z,13.80
2019-05-20T21:13:20.779Z,14.70
2019-05-20T21:18:28.011Z,12.03
2019-05-20T21:23:37.921Z,11.13
2019-05-20T21:28:43.839Z,11.13
2019-05-20T21:33:50.910Z,11.17
2019-05-20T21:38:58.128Z,10.27
2019-05-20T21:44:06.027Z,9.70
2019-05-20T21:49:13.525Z,9.37
2019-05-20T21:54:21.060Z,12.57
2019-05-20T21:59:28.272Z,16.73
2019-05-20T22:04:35.444Z,16.37
2019-05-20T22:09:42.568Z,14.83
2019-05-20T22:14:50.757Z,14.93
2019-05-20T22:19:57.829Z,14.90
2019-05-20T22:25:06.264Z,15.20
2019-05-20T22:30:14.232Z,16.32
2019-05-20T22:35:21.339Z,14.67
2019-05-20T22:40:28.535Z,14.40
2019-05-20T22:45:35.715Z,14.20
2019-05-20T22:50:43.076Z,14.87
2019-05-20T22:55:50.253Z,14.03
2019-05-20T23:00:57.477Z,14.47
2019-05-20T23:06:06.249Z,14.40
2019-05-20T23:11:13.406Z,13.93
2019-05-20T23:16:20.572Z,13.65
2019-05-20T23:21:27.876Z,12.60
2019-05-20T23:26:35.201Z,12.83
2019-05-20T23:31:42.479Z,12.07
2019-05-20T23:36:49.585Z,14.63
2019-05-20T23:41:56.704Z,12.83
2019-05-20T23:47:03.893Z,14.77
2019-05-20T23:52:11.321Z,14.90
2019-05-20T23:57:18.510Z,15.50
